Time;durP1;ratioP1;P1;durP2;ratioP2;P2;SDS_P1;SDS_P2;PMS_P1;PMS_P2;Temp;Humidity;BMP_temperature;BMP_pressure;BME280_temperature;BME280_humidity;BME280_pressure;Samples;Min_cycle;Max_cycle;Signal;HPM_P1;HPM_P2
2022/09/07 00:01:47;;;;;;;3.92;0.52;;;17.30;99.90;;;;;;5018981;28;20036;-76
2022/09/07 00:04:13;;;;;;;2.47;0.45;;;17.30;99.90;;;;;;5037088;28;20025;-75
2022/09/07 00:06:39;;;;;;;3.47;0.40;;;17.30;99.90;;;;;;5037197;28;20059;-76
2022/09/07 00:09:05;;;;;;;3.70;0.90;;;17.30;99.90;;;;;;5036991;28;20017;-75
2022/09/07 00:11:31;;;;;;;3.13;0.93;;;17.30;99.90;;;;;;5036387;28;20029;-75
2022/09/07 00:13:56;;;;;;;3.88;1.00;;;17.30;99.90;;;;;;5036183;28;20163;-75
2022/09/07 00:16:28;;;;;;;3.42;0.85;;;17.30;99.90;;;;;;5018650;28;20060;-75
2022/09/07 00:18:55;;;;;;;2.72;0.90;;;17.30;99.90;;;;;;5036132;28;20029;-75
2022/09/07 00:21:21;;;;;;;4.40;1.10;;;17.40;99.90;;;;;;5036771;28;20013;-76
2022/09/07 00:23:48;;;;;;;4.32;1.50;;;17.40;99.90;;;;;;5036231;28;20018;-76
2022/09/07 00:26:18;;;;;;;8.98;1.10;;;17.40;99.90;;;;;;5036127;28;20104;-75
2022/09/07 00:28:44;;;;;;;2.67;1.08;;;17.40;99.90;;;;;;5036233;28;20075;-75
2022/09/07 00:31:12;;;;;;;9.40;0.90;;;17.40;99.90;;;;;;5036619;28;20029;-76
2022/09/07 00:33:38;;;;;;;3.50;1.23;;;17.40;99.90;;;;;;5035977;28;20030;-75
2022/09/07 00:36:04;;;;;;;2.17;0.73;;;17.40;99.90;;;;;;5036230;28;20076;-76
2022/09/07 00:38:29;;;;;;;4.47;0.75;;;17.40;99.90;;;;;;5035926;28;20055;-75
2022/09/07 00:40:55;;;;;;;2.97;0.50;;;17.30;99.90;;;;;;5035930;28;20025;-75
2022/09/07 00:43:45;;;;;;;4.35;0.30;;;17.30;99.90;;;;;;5018079;28;20061;-75
2022/09/07 00:46:19;;;;;;;3.38;0.30;;;17.20;99.90;;;;;;5035960;28;20044;-76
2022/09/07 00:49:02;;;;;;;3.80;0.28;;;17.20;99.90;;;;;;5035900;28;20025;-75
2022/09/07 00:51:41;;;;;;;1.35;0.30;;;17.20;99.90;;;;;;5035785;28;20109;-74
2022/09/07 00:54:21;;;;;;;3.60;0.38;;;17.20;99.90;;;;;;5036380;28;20139;-75
2022/09/07 00:56:49;;;;;;;4.22;0.93;;;17.20;99.90;;;;;;5035657;28;20128;-75
2022/09/07 00:59:18;;;;;;;1.05;0.17;;;17.20;99.90;;;;;;5036075;28;20462;-77
2022/09/07 01:01:44;;;;;;;2.58;0.40;;;17.20;99.90;;;;;;5034396;28;20024;-76
2022/09/07 01:04:10;;;;;;;2.10;1.02;;;17.20;99.90;;;;;;5035983;28;20041;-76
2022/09/07 01:06:38;;;;;;;1.83;0.57;;;17.10;99.90;;;;;;5035827;28;20045;-76
2022/09/07 01:09:17;;;;;;;1.57;0.20;;;17.10;99.90;;;;;;5035565;28;20042;-75
2022/09/07 01:11:49;;;;;;;1.70;0.15;;;17.10;99.90;;;;;;5017236;28;20029;-76
2022/09/07 01:14:22;;;;;;;2.50;0.05;;;17.10;99.90;;;;;;5017554;28;20032;-76
2022/09/07 01:17:06;;;;;;;3.70;0.10;;;17.10;99.90;;;;;;5035490;28;20029;-75
2022/09/07 01:20:09;;;;;;;1.85;0.10;;;17.10;99.90;;;;;;5035493;28;20351;-75
2022/09/07 01:22:46;;;;;;;1.45;0.00;;;17.10;99.90;;;;;;5035161;28;20101;-76
2022/09/07 01:25:26;;;;;;;3.28;0.08;;;17.10;99.90;;;;;;5035824;28;20097;-76
2022/09/07 01:28:00;;;;;;;1.50;0.32;;;17.10;99.90;;;;;;5035419;28;20022;-76
2022/09/07 01:30:27;;;;;;;2.38;0.00;;;17.10;99.90;;;;;;5035042;28;20418;-76
2022/09/07 01:33:08;;;;;;;0.43;0.05;;;17.10;99.90;;;;;;5017309;28;20033;-76
2022/09/07 01:35:47;;;;;;;1.38;0.30;;;17.20;99.90;;;;;;5017191;28;20079;-76
2022/09/07 01:38:43;;;;;;;1.63;0.22;;;17.20;99.90;;;;;;5035303;28;20131;-76
2022/09/07 01:41:19;;;;;;;1.50;0.00;;;17.10;99.90;;;;;;5035111;28;20520;-76
2022/09/07 01:44:03;;;;;;;1.63;0.20;;;17.20;99.90;;;;;;5016898;28;20125;-76
2022/09/07 01:46:40;;;;;;;0.50;0.00;;;17.20;99.90;;;;;;5017365;28;20021;-77
2022/09/07 01:49:13;;;;;;;2.00;0.00;;;17.20;99.90;;;;;;5034707;28;20021;-76
2022/09/07 01:51:44;;;;;;;0.10;0.00;;;17.10;99.90;;;;;;5034834;28;20364;-76
2022/09/07 01:54:23;;;;;;;0.35;0.00;;;17.10;99.90;;;;;;5034462;28;20060;-76
2022/09/07 01:56:53;;;;;;;2.28;0.13;;;17.10;99.90;;;;;;5034853;28;20026;-75
2022/09/07 01:59:29;;;;;;;0.80;0.00;;;17.10;99.90;;;;;;5016707;28;20053;-75
2022/09/07 02:02:17;;;;;;;0.10;0.00;;;17.10;99.90;;;;;;5035109;28;20026;-76
2022/09/07 02:04:55;;;;;;;2.45;0.00;;;17.00;99.90;;;;;;5016394;28;20025;-75
2022/09/07 02:07:31;;;;;;;0.00;0.00;;;16.90;99.90;;;;;;5034907;28;20022;-75
2022/09/07 02:10:07;;;;;;;0.73;0.30;;;16.90;99.90;;;;;;5016937;28;20032;-75
2022/09/07 02:12:43;;;;;;;2.35;0.30;;;16.80;99.90;;;;;;5034138;28;20041;-75
2022/09/07 02:15:24;;;;;;;0.00;0.00;;;16.80;99.90;;;;;;5034111;28;20029;-76
2022/09/07 02:17:58;;;;;;;0.13;0.00;;;16.80;99.90;;;;;;5034398;28;20036;-76
2022/09/07 02:20:30;;;;;;;2.65;0.28;;;16.70;99.90;;;;;;5016361;28;20030;-76
2022/09/07 02:23:01;;;;;;;0.28;0.25;;;16.70;99.90;;;;;;5033825;28;20032;-75
2022/09/07 02:25:33;;;;;;;0.52;0.00;;;16.70;99.90;;;;;;5034135;28;20108;-75
2022/09/07 02:28:08;;;;;;;0.38;0.00;;;16.80;99.90;;;;;;5034130;28;20462;-76
2022/09/07 02:30:34;;;;;;;0.00;0.00;;;16.70;99.90;;;;;;5033890;28;20018;-75
2022/09/07 02:33:00;;;;;;;1.85;0.13;;;16.70;99.90;;;;;;5016269;28;20486;-75
2022/09/07 02:35:26;;;;;;;0.32;0.00;;;16.70;99.90;;;;;;5016044;28;20042;-77
2022/09/07 02:37:52;;;;;;;0.30;0.00;;;16.70;99.90;;;;;;5032613;28;20382;-75
2022/09/07 02:40:18;;;;;;;0.35;0.00;;;16.70;99.90;;;;;;5033794;28;20033;-75
2022/09/07 02:42:45;;;;;;;0.45;0.00;;;16.70;99.90;;;;;;5033779;28;20024;-74
2022/09/07 02:45:13;;;;;;;1.40;0.03;;;16.70;99.90;;;;;;5016284;28;20113;-74
2022/09/07 02:48:21;;;;;;;0.47;0.00;;;16.70;99.90;;;;;;5033688;28;20028;-75
2022/09/07 02:50:53;;;;;;;0.98;0.00;;;16.70;99.90;;;;;;4984209;28;20499;-75
2022/09/07 02:53:38;;;;;;;2.50;0.10;;;16.70;99.90;;;;;;5034081;28;20026;-76
2022/09/07 02:56:11;;;;;;;0.38;0.00;;;16.70;99.90;;;;;;5033507;28;20033;-76
2022/09/07 02:59:01;;;;;;;2.63;0.00;;;16.60;99.90;;;;;;5033407;28;20025;-75
2022/09/07 03:01:33;;;;;;;0.65;0.05;;;16.60;99.90;;;;;;5015760;28;20028;-76
2022/09/07 03:04:17;;;;;;;0.20;0.00;;;16.50;99.90;;;;;;5015664;28;20025;-75
2022/09/07 03:06:50;;;;;;;1.05;0.20;;;16.50;99.90;;;;;;5033633;28;20071;-75
2022/09/07 03:09:19;;;;;;;1.73;0.00;;;16.50;99.90;;;;;;5033917;28;20026;-76
2022/09/07 03:11:45;;;;;;;1.20;0.00;;;16.40;99.90;;;;;;5033133;28;20055;-75
2022/09/07 03:14:15;;;;;;;0.57;0.00;;;16.40;99.90;;;;;;5033315;28;20025;-75
2022/09/07 03:16:42;;;;;;;0.10;0.00;;;16.40;99.90;;;;;;5033043;28;20155;-75
2022/09/07 03:19:07;;;;;;;0.40;0.00;;;16.50;99.90;;;;;;5033227;28;20029;-76
2022/09/07 03:21:34;;;;;;;0.00;0.00;;;16.40;99.90;;;;;;5033118;28;20022;-76
2022/09/07 03:24:00;;;;;;;0.80;0.13;;;16.40;99.90;;;;;;5033033;28;20101;-75
2022/09/07 03:26:26;;;;;;;1.35;0.00;;;16.40;99.90;;;;;;5033111;28;20025;-75
2022/09/07 03:28:51;;;;;;;2.38;0.35;;;16.40;99.90;;;;;;5015769;28;20026;-75
2022/09/07 03:31:17;;;;;;;0.65;0.00;;;16.40;99.90;;;;;;5033105;28;20057;-76
2022/09/07 03:33:42;;;;;;;0.20;0.00;;;16.40;99.90;;;;;;5034801;28;20087;-76
2022/09/07 03:36:08;;;;;;;4.68;0.35;;;16.40;99.90;;;;;;5019439;28;20033;-75
2022/09/07 03:38:34;;;;;;;0.50;0.00;;;16.40;99.90;;;;;;5037126;28;20033;-75
2022/09/07 03:41:01;;;;;;;0.20;0.00;;;16.40;99.90;;;;;;5037289;28;20025;-75
2022/09/07 03:43:27;;;;;;;0.73;0.10;;;16.50;99.90;;;;;;5037531;28;20075;-75
2022/09/07 03:46:01;;;;;;;0.50;0.10;;;16.50;99.90;;;;;;5036824;28;20486;-76
2022/09/07 03:48:31;;;;;;;4.10;0.30;;;16.50;99.90;;;;;;5019291;28;20028;-76
2022/09/07 03:51:05;;;;;;;0.20;0.00;;;16.50;99.90;;;;;;5037141;28;20433;-76
2022/09/07 03:53:32;;;;;;;0.95;0.00;;;16.60;99.90;;;;;;5036983;28;20022;-75
2022/09/07 03:56:06;;;;;;;0.88;0.10;;;16.60;99.90;;;;;;5036781;28;20053;-75
2022/09/07 03:58:33;;;;;;;2.47;0.10;;;16.50;99.90;;;;;;5036751;28;20105;-76
2022/09/07 04:01:04;;;;;;;0.30;0.00;;;16.50;99.90;;;;;;5036667;28;20139;-76
2022/09/07 04:03:29;;;;;;;0.03;0.00;;;16.50;99.90;;;;;;5036689;28;20422;-75
2022/09/07 04:05:58;;;;;;;0.95;0.00;;;16.50;99.90;;;;;;5036651;28;20013;-75
2022/09/07 04:08:28;;;;;;;0.30;0.00;;;16.40;99.90;;;;;;5036606;28;20029;-76
2022/09/07 04:10:59;;;;;;;1.23;0.10;;;16.40;99.90;;;;;;5036545;28;20033;-77
2022/09/07 04:13:26;;;;;;;1.42;0.15;;;16.40;99.90;;;;;;5037164;28;20502;-75
2022/09/07 04:15:52;;;;;;;0.70;0.17;;;16.30;99.90;;;;;;5036510;28;20025;-76
2022/09/07 04:18:18;;;;;;;0.85;0.08;;;16.30;99.90;;;;;;5036554;28;20026;-76
2022/09/07 04:20:45;;;;;;;1.13;0.00;;;16.20;99.90;;;;;;5036413;28;20036;-76
2022/09/07 04:23:11;;;;;;;2.50;0.10;;;16.20;99.90;;;;;;5036471;28;20432;-75
2022/09/07 04:25:37;;;;;;;2.15;0.00;;;16.10;99.90;;;;;;5018432;28;20036;-75
2022/09/07 04:28:03;;;;;;;0.85;0.00;;;16.10;99.90;;;;;;5036365;28;20069;-76
2022/09/07 04:30:29;;;;;;;1.70;0.10;;;16.10;99.90;;;;;;5018400;28;20029;-75
2022/09/07 04:32:54;;;;;;;0.68;0.13;;;16.00;99.90;;;;;;5036187;28;20100;-77
2022/09/07 04:35:20;;;;;;;0.13;0.10;;;16.00;99.90;;;;;;5018311;28;20029;-76
2022/09/07 04:37:47;;;;;;;0.70;0.25;;;16.00;99.90;;;;;;5036061;28;20108;-75
2022/09/07 04:40:17;;;;;;;0.30;0.10;;;16.00;99.90;;;;;;5018304;28;20044;-75
2022/09/07 04:42:42;;;;;;;9.27;1.15;;;16.00;99.90;;;;;;5036355;28;20067;-75
2022/09/07 04:45:08;;;;;;;2.00;0.10;;;16.00;99.90;;;;;;5035430;28;20439;-75
2022/09/07 04:47:34;;;;;;;2.15;0.30;;;16.00;99.90;;;;;;5035926;28;20478;-75
2022/09/07 04:49:59;;;;;;;1.25;0.50;;;15.90;99.90;;;;;;5036066;28;20136;-75
2022/09/07 04:52:25;;;;;;;0.68;0.30;;;16.00;99.90;;;;;;5035820;28;20540;-76
2022/09/07 04:54:50;;;;;;;2.65;0.20;;;15.90;99.90;;;;;;5036346;28;20029;-76
2022/09/07 04:57:20;;;;;;;2.00;0.20;;;15.90;99.90;;;;;;5017987;28;20112;-75
2022/09/07 04:59:47;;;;;;;1.58;0.20;;;15.90;99.90;;;;;;5035530;28;20026;-76
2022/09/07 05:02:12;;;;;;;2.63;0.20;;;15.90;99.90;;;;;;5035583;28;20490;-75
2022/09/07 05:04:38;;;;;;;2.08;0.30;;;15.90;99.90;;;;;;5017884;28;20053;-75
2022/09/07 05:07:03;;;;;;;3.95;0.52;;;15.80;99.90;;;;;;5035634;28;20467;-75
2022/09/07 05:09:29;;;;;;;1.58;0.40;;;15.90;99.90;;;;;;5036026;28;20549;-75
2022/09/07 05:11:55;;;;;;;0.55;0.28;;;15.80;99.90;;;;;;5044120;23;20052;-75
2022/09/07 05:14:21;;;;;;;1.90;0.98;;;15.80;99.90;;;;;;5035578;28;20470;-74
2022/09/07 05:16:48;;;;;;;0.50;0.30;;;15.80;99.90;;;;;;5035780;28;20406;-74
2022/09/07 05:19:14;;;;;;;0.90;0.20;;;15.80;99.90;;;;;;5035334;28;20034;-74
2022/09/07 05:21:40;;;;;;;1.08;0.60;;;15.80;99.90;;;;;;5035427;28;20056;-74
2022/09/07 05:24:06;;;;;;;1.13;0.30;;;15.70;99.90;;;;;;5017455;28;20046;-74
2022/09/07 05:26:34;;;;;;;0.75;0.30;;;15.70;99.90;;;;;;5035335;28;20049;-74
2022/09/07 05:29:02;;;;;;;2.67;0.57;;;15.70;99.90;;;;;;5035787;28;20108;-73
2022/09/07 05:31:29;;;;;;;2.35;0.40;;;15.60;99.90;;;;;;5035128;28;20140;-74
2022/09/07 05:33:56;;;;;;;1.15;0.15;;;15.60;99.90;;;;;;5017170;28;20432;-74
2022/09/07 05:36:25;;;;;;;2.45;0.70;;;15.60;99.90;;;;;;5035072;28;20021;-74
2022/09/07 05:38:51;;;;;;;2.65;0.40;;;15.60;99.90;;;;;;5017299;28;20025;-74
2022/09/07 05:41:23;;;;;;;0.85;0.47;;;15.60;99.90;;;;;;5035075;28;20029;-73
2022/09/07 05:43:49;;;;;;;2.10;0.68;;;15.60;99.90;;;;;;5035241;28;20032;-75
2022/09/07 05:46:16;;;;;;;1.17;0.40;;;15.60;99.90;;;;;;5035632;28;20025;-75
2022/09/07 05:48:42;;;;;;;0.55;0.30;;;15.60;99.90;;;;;;5017672;28;20041;-76
2022/09/07 05:51:09;;;;;;;0.85;0.43;;;15.60;99.90;;;;;;5034863;28;20236;-76
2022/09/07 05:53:36;;;;;;;0.57;0.22;;;15.60;99.90;;;;;;5035388;28;20104;-75
2022/09/07 05:56:03;;;;;;;2.58;0.50;;;15.60;99.90;;;;;;5034632;28;20033;-75
2022/09/07 05:58:28;;;;;;;4.32;0.70;;;15.70;99.90;;;;;;5034694;28;20097;-75
2022/09/07 06:00:58;;;;;;;1.25;0.80;;;15.80;99.90;;;;;;5017011;28;20164;-75
2022/09/07 06:03:24;;;;;;;2.40;0.47;;;15.80;99.90;;;;;;5034592;28;20025;-75
2022/09/07 06:06:00;;;;;;;0.90;0.60;;;15.90;99.90;;;;;;5035100;28;20025;-75
2022/09/07 06:08:25;;;;;;;3.28;0.65;;;16.00;99.90;;;;;;5034497;28;20022;-76
2022/09/07 06:10:51;;;;;;;0.65;0.40;;;16.10;99.90;;;;;;5016775;28;20443;-75
2022/09/07 06:13:16;;;;;;;2.22;0.40;;;16.30;99.90;;;;;;5034805;28;20466;-76
2022/09/07 06:15:42;;;;;;;1.13;0.50;;;16.30;99.90;;;;;;5034471;28;20029;-74
2022/09/07 06:18:08;;;;;;;1.38;0.43;;;16.40;99.90;;;;;;5034410;28;20030;-75
2022/09/07 06:20:33;;;;;;;0.38;0.30;;;16.40;99.90;;;;;;5034323;28;20033;-75
2022/09/07 06:22:59;;;;;;;1.95;0.30;;;16.60;99.90;;;;;;5034604;28;20021;-75
2022/09/07 06:25:24;;;;;;;0.95;0.63;;;16.50;99.90;;;;;;5034316;28;20029;-75
2022/09/07 06:27:52;;;;;;;1.55;0.82;;;16.50;99.90;;;;;;5034547;28;20022;-75
2022/09/07 06:30:19;;;;;;;2.47;0.88;;;16.90;99.90;;;;;;5034463;28;20025;-75
2022/09/07 06:32:44;;;;;;;3.35;0.80;;;16.60;99.90;;;;;;5016541;28;20486;-74
2022/09/07 06:35:10;;;;;;;2.40;1.15;;;16.70;99.90;;;;;;5034339;28;20098;-74
2022/09/07 06:37:37;;;;;;;2.55;0.82;;;16.70;99.90;;;;;;5016372;28;20025;-74
2022/09/07 06:40:02;;;;;;;5.50;1.50;;;16.80;99.90;;;;;;5016236;28;20543;-75
2022/09/07 06:42:28;;;;;;;3.40;1.85;;;16.90;99.90;;;;;;5034149;28;20096;-76
2022/09/07 06:44:54;;;;;;;3.03;1.50;;;17.00;99.90;;;;;;5034021;28;20097;-76
2022/09/07 06:47:19;;;;;;;2.63;1.95;;;17.10;99.90;;;;;;5033873;28;20496;-75
2022/09/07 06:49:45;;;;;;;2.97;1.67;;;17.20;99.90;;;;;;5033869;28;20037;-75
2022/09/07 06:52:10;;;;;;;5.78;2.00;;;17.30;99.90;;;;;;5033687;28;20025;-75
2022/09/07 06:54:36;;;;;;;4.38;2.03;;;17.40;99.90;;;;;;5015804;28;20063;-75
2022/09/07 06:57:07;;;;;;;8.77;2.63;;;17.40;99.90;;;;;;5015968;28;20021;-75
2022/09/07 06:59:33;;;;;;;6.10;2.80;;;17.40;99.90;;;;;;5033505;28;20025;-75
2022/09/07 07:01:59;;;;;;;5.30;2.67;;;17.40;99.90;;;;;;5033619;28;20116;-75
2022/09/07 07:04:24;;;;;;;3.95;2.47;;;17.50;99.90;;;;;;5033447;28;20049;-75
2022/09/07 07:06:50;;;;;;;5.60;2.97;;;17.50;99.90;;;;;;5034133;28;20021;-75
2022/09/07 07:09:15;;;;;;;4.07;2.50;;;17.60;99.90;;;;;;5015369;28;20052;-74
2022/09/07 07:11:43;;;;;;;6.65;2.60;;;17.60;99.90;;;;;;5033313;28;20080;-75
2022/09/07 07:14:13;;;;;;;4.45;2.38;;;17.80;99.90;;;;;;5033641;28;20026;-74
2022/09/07 07:16:38;;;;;;;3.97;2.63;;;17.90;99.90;;;;;;5033690;28;20022;-75
2022/09/07 07:19:04;;;;;;;4.60;2.45;;;18.00;99.90;;;;;;5016745;28;20529;-74
2022/09/07 07:21:29;;;;;;;4.30;2.53;;;18.10;99.90;;;;;;5033387;28;20037;-75
2022/09/07 07:23:55;;;;;;;4.65;2.67;;;18.20;99.90;;;;;;5033470;28;20022;-76
2022/09/07 07:26:25;;;;;;;7.70;3.00;;;18.20;99.90;;;;;;5015682;28;20025;-75
2022/09/07 07:28:53;;;;;;;4.38;2.53;;;18.30;99.90;;;;;;5033660;28;20490;-74
2022/09/07 07:31:21;;;;;;;5.47;2.77;;;18.30;99.90;;;;;;5033274;28;20409;-75
2022/09/07 07:33:47;;;;;;;6.10;2.92;;;18.50;99.90;;;;;;5033219;28;20068;-75
2022/09/07 07:36:14;;;;;;;4.47;2.17;;;18.60;99.90;;;;;;5033498;28;20551;-75
2022/09/07 07:38:41;;;;;;;6.93;3.42;;;18.70;99.90;;;;;;5033083;28;20029;-75
2022/09/07 07:41:07;;;;;;;3.70;2.88;;;19.10;99.90;;;;;;5033379;28;20014;-75
2022/09/07 07:43:33;;;;;;;4.82;3.47;;;18.80;99.90;;;;;;5015441;28;20033;-75
2022/09/07 07:45:59;;;;;;;6.53;3.28;;;18.80;99.90;;;;;;5015339;28;20049;-75
2022/09/07 07:48:29;;;;;;;5.90;3.70;;;18.80;99.90;;;;;;5015437;28;20475;-76
2022/09/07 07:51:00;;;;;;;9.70;4.03;;;18.80;99.90;;;;;;5033124;28;20018;-75
2022/09/07 07:53:27;;;;;;;6.82;4.43;;;18.80;99.90;;;;;;5015385;28;20029;-75
2022/09/07 07:55:52;;;;;;;6.38;4.00;;;18.90;99.90;;;;;;5033074;28;20111;-75
2022/09/07 07:58:18;;;;;;;7.72;4.32;;;18.90;99.90;;;;;;5033054;28;20072;-75
2022/09/07 08:00:44;;;;;;;7.72;4.65;;;18.90;99.90;;;;;;5033123;28;20030;-75
2022/09/07 08:03:09;;;;;;;6.90;4.32;;;19.00;99.90;;;;;;5033150;28;20103;-75
2022/09/07 08:05:36;;;;;;;8.02;5.45;;;19.00;99.90;;;;;;5032817;28;20057;-75
2022/09/07 08:08:02;;;;;;;10.63;5.75;;;19.00;99.90;;;;;;5033258;28;20107;-75
2022/09/07 08:10:28;;;;;;;7.30;4.85;;;18.90;99.90;;;;;;5032972;28;20112;-75
2022/09/07 08:12:54;;;;;;;10.13;4.68;;;18.90;99.90;;;;;;5015064;28;20072;-74
2022/09/07 08:15:20;;;;;;;8.00;5.05;;;18.90;99.90;;;;;;5016082;28;20061;-75
2022/09/07 08:17:47;;;;;;;8.85;5.82;;;18.90;99.90;;;;;;5015273;28;20091;-74
2022/09/07 08:20:12;;;;;;;9.32;5.88;;;19.10;99.90;;;;;;5033196;28;20030;-74
2022/09/07 08:22:38;;;;;;;8.40;5.53;;;19.10;99.90;;;;;;5036868;28;20501;-76
2022/09/07 08:25:05;;;;;;;9.10;5.60;;;19.20;99.90;;;;;;5036589;28;20032;-76
2022/09/07 08:27:32;;;;;;;9.32;5.60;;;19.30;99.90;;;;;;5036501;28;20022;-77
2022/09/07 08:29:58;;;;;;;9.63;5.43;;;19.30;99.90;;;;;;5036739;28;20103;-77
2022/09/07 08:32:25;;;;;;;9.70;5.07;;;19.50;99.90;;;;;;5018743;28;20124;-77
2022/09/07 08:34:50;;;;;;;9.18;6.32;;;19.50;99.90;;;;;;5036355;28;20391;-76
2022/09/07 08:37:16;;;;;;;8.70;5.85;;;19.60;99.90;;;;;;5036522;28;20026;-76
2022/09/07 08:39:42;;;;;;;9.07;5.63;;;19.60;99.90;;;;;;5036533;28;20024;-75
2022/09/07 08:42:32;;;;;;;9.18;6.18;;;19.70;99.90;;;;;;5036372;28;20028;-77
2022/09/07 08:45:08;;;;;;;9.05;5.75;;;19.80;99.90;;;;;;5036224;28;20108;-77
2022/09/07 08:47:47;;;;;;;9.07;5.50;;;19.90;99.90;;;;;;5036899;28;20026;-77
2022/09/07 08:50:17;;;;;;;13.55;5.60;;;19.90;99.90;;;;;;5036241;28;20056;-75
2022/09/07 08:52:48;;;;;;;9.20;5.50;;;19.90;99.90;;;;;;5036702;28;20059;-75
2022/09/07 08:55:27;;;;;;;8.50;5.22;;;20.10;99.90;;;;;;5036206;28;20032;-75
2022/09/07 08:58:05;;;;;;;10.52;5.50;;;20.10;99.90;;;;;;5036173;28;20100;-76
2022/09/07 09:00:30;;;;;;;7.07;4.93;;;20.20;99.90;;;;;;5036175;28;20068;-76
2022/09/07 09:02:57;;;;;;;8.35;5.78;;;20.20;99.90;;;;;;5036633;28;20053;-75
2022/09/07 09:05:48;;;;;;;7.95;5.35;;;20.30;99.90;;;;;;5036475;28;20071;-76
2022/09/07 09:08:41;;;;;;;8.02;5.25;;;20.40;99.90;;;;;;5035785;28;20076;-75
2022/09/07 09:11:18;;;;;;;6.25;4.82;;;20.60;99.90;;;;;;5035849;28;20033;-76
2022/09/07 09:13:58;;;;;;;7.93;4.97;;;20.70;99.90;;;;;;5035938;28;20037;-76
2022/09/07 09:16:27;;;;;;;7.15;4.97;;;20.70;99.90;;;;;;5036319;28;20100;-77
2022/09/07 09:19:11;;;;;;;8.70;5.43;;;20.90;99.90;;;;;;5035707;28;20022;-76
2022/09/07 09:21:39;;;;;;;6.35;4.63;;;20.80;99.90;;;;;;5035484;28;20091;-76
2022/09/07 09:24:15;;;;;;;11.13;5.90;;;20.80;99.90;;;;;;5017722;28;20014;-76
2022/09/07 09:26:45;;;;;;;7.70;5.13;;;20.90;99.90;;;;;;5035539;28;20109;-76
2022/09/07 09:29:16;;;;;;;8.77;5.38;;;21.10;99.90;;;;;;5035527;28;20029;-76
2022/09/07 09:31:41;;;;;;;7.10;5.15;;;21.30;99.90;;;;;;5017274;28;20120;-76
2022/09/07 09:34:14;;;;;;;6.05;5.07;;;21.40;99.90;;;;;;5035267;28;20152;-76
2022/09/07 09:36:49;;;;;;;9.35;4.70;;;21.30;99.90;;;;;;5035414;28;20033;-76
2022/09/07 09:39:33;;;;;;;5.00;3.78;;;21.50;99.90;;;;;;5035490;28;20070;-75
2022/09/07 09:42:10;;;;;;;5.13;4.38;;;21.70;99.90;;;;;;5035193;28;20032;-76
2022/09/07 09:44:37;;;;;;;4.18;3.22;;;21.70;99.90;;;;;;5017371;28;20513;-77
2022/09/07 09:47:03;;;;;;;4.80;3.88;;;21.70;99.90;;;;;;5035307;28;20505;-77
2022/09/07 09:49:39;;;;;;;5.50;3.33;;;21.70;99.90;;;;;;5035013;28;20032;-77
2022/09/07 09:52:16;;;;;;;6.25;3.50;;;21.70;99.90;;;;;;5035575;28;20026;-76
2022/09/07 09:54:47;;;;;;;4.15;3.35;;;21.90;99.90;;;;;;5035038;28;20049;-77
2022/09/07 09:57:36;;;;;;;7.13;4.07;;;21.90;99.90;;;;;;5035680;28;20371;-77
2022/09/07 10:00:03;;;;;;;5.40;3.53;;;22.00;99.90;;;;;;5016933;28;20032;-77
2022/09/07 10:02:31;;;;;;;4.93;2.90;;;22.10;99.90;;;;;;5035325;28;20363;-76
2022/09/07 10:04:57;;;;;;;4.20;3.03;;;22.20;99.90;;;;;;5034783;28;20079;-76
2022/09/07 10:07:28;;;;;;;3.20;2.38;;;22.20;99.90;;;;;;5017787;28;20029;-76
2022/09/07 10:09:55;;;;;;;5.15;2.22;;;22.20;99.90;;;;;;5034665;28;20045;-76
2022/09/07 10:12:35;;;;;;;3.58;2.20;;;22.30;99.90;;;;;;5034505;28;20224;-76
2022/09/07 10:15:04;;;;;;;3.67;2.53;;;22.50;99.90;;;;;;5034487;28;20029;-76
2022/09/07 10:17:46;;;;;;;2.92;1.95;;;22.80;99.90;;;;;;5034460;28;20021;-76
2022/09/07 10:20:14;;;;;;;2.45;1.65;;;22.70;99.90;;;;;;5034465;28;20029;-76
2022/09/07 10:22:43;;;;;;;3.00;1.73;;;22.70;99.90;;;;;;5016867;28;20028;-75
2022/09/07 10:25:27;;;;;;;4.68;1.80;;;22.90;99.90;;;;;;5016594;28;20027;-75
2022/09/07 10:28:17;;;;;;;3.53;0.95;;;22.70;99.90;;;;;;5034545;28;20029;-76
2022/09/07 10:30:52;;;;;;;1.73;1.08;;;22.70;99.90;;;;;;5016693;28;20096;-75
2022/09/07 10:33:32;;;;;;;1.73;0.68;;;22.60;99.90;;;;;;5034410;28;20029;-77
2022/09/07 10:36:11;;;;;;;2.70;0.50;;;22.70;99.90;;;;;;5016352;28;20483;-76
2022/09/07 10:38:46;;;;;;;2.63;0.20;;;22.80;99.90;;;;;;5034245;28;20037;-76
2022/09/07 10:41:12;;;;;;;1.30;0.13;;;22.90;99.90;;;;;;5034314;28;20080;-77
2022/09/07 10:43:50;;;;;;;2.17;0.40;;;23.10;99.90;;;;;;5015797;28;20017;-76
2022/09/07 10:46:49;;;;;;;2.28;0.15;;;23.20;99.90;;;;;;5034267;28;20056;-77
2022/09/07 10:49:31;;;;;;;1.55;0.43;;;23.50;99.90;;;;;;5034204;28;20029;-77
2022/09/07 10:52:08;;;;;;;1.52;0.20;;;23.70;99.90;;;;;;5016469;28;20486;-77
2022/09/07 10:54:39;;;;;;;4.22;0.13;;;23.80;99.90;;;;;;5034269;28;20560;-76
2022/09/07 10:57:36;;;;;;;2.85;0.20;;;23.70;99.90;;;;;;5034161;28;20017;-76
2022/09/07 11:00:21;;;;;;;1.00;0.00;;;23.40;99.90;;;;;;5034132;28;20100;-77
2022/09/07 11:03:19;;;;;;;4.00;0.30;;;23.30;99.90;;;;;;5015943;28;20029;-76
2022/09/07 11:06:12;;;;;;;4.10;0.00;;;23.20;99.90;;;;;;5033779;28;20018;-75
2022/09/07 11:08:41;;;;;;;1.83;0.30;;;23.20;99.90;;;;;;5033996;28;20482;-76
2022/09/07 11:11:24;;;;;;;;;;;23.30;99.90;;;;;;5034082;28;20064;-76
2022/09/07 11:13:54;;;;;;;1.48;0.08;;;23.50;99.90;;;;;;5033724;28;19908;-75
2022/09/07 11:16:29;;;;;;;1.35;0.43;;;23.60;99.90;;;;;;5016465;28;20029;-76
2022/09/07 11:19:02;;;;;;;2.15;0.15;;;23.60;99.90;;;;;;5033696;28;20064;-78
2022/09/07 11:21:38;;;;;;;7.80;0.00;;;23.90;99.90;;;;;;5033558;28;20090;-76
2022/09/07 11:24:12;;;;;;;2.25;0.13;;;24.00;99.90;;;;;;5033527;28;20494;-75
2022/09/07 11:26:52;;;;;;;5.55;0.10;;;24.00;99.90;;;;;;5015899;28;20026;-76
2022/09/07 11:29:39;;;;;;;1.90;0.10;;;23.80;99.90;;;;;;5016117;28;20486;-76
2022/09/07 11:32:28;;;;;;;1.90;0.00;;;23.60;99.90;;;;;;5015654;28;20030;-76
2022/09/07 11:35:19;;;;;;;2.28;0.10;;;23.30;99.90;;;;;;5033813;28;20028;-77
2022/09/07 11:37:54;;;;;;;2.83;0.00;;;23.10;99.90;;;;;;5034022;28;20462;-77
2022/09/07 11:40:41;;;;;;;0.88;0.10;;;23.20;99.90;;;;;;5033487;28;20051;-75
2022/09/07 11:43:23;;;;;;;4.45;0.17;;;23.20;99.90;;;;;;5033493;28;20105;-75
2022/09/07 11:46:09;;;;;;;6.72;0.77;;;23.30;99.90;;;;;;5015330;28;20029;-75
2022/09/07 11:48:41;;;;;;;5.88;1.08;;;23.40;99.90;;;;;;5033237;28;20022;-75
2022/09/07 11:51:25;;;;;;;4.78;0.30;;;23.50;99.90;;;;;;5033137;28;20497;-75
2022/09/07 11:54:05;;;;;;;3.58;0.10;;;23.50;99.90;;;;;;5032987;28;20101;-75
2022/09/07 11:56:40;;;;;;;2.83;0.10;;;23.70;99.90;;;;;;5037092;28;20071;-75
2022/09/07 11:59:14;;;;;;;1.65;0.00;;;23.80;99.90;;;;;;5019382;28;20513;-76
2022/09/07 12:01:53;;;;;;;3.08;0.10;;;24.10;99.90;;;;;;5037101;28;20021;-75
2022/09/07 12:04:40;;;;;;;2.78;0.10;;;24.40;99.90;;;;;;5037223;28;20025;-76
2022/09/07 12:07:38;;;;;;;3.42;0.00;;;24.40;99.90;;;;;;5019318;28;20017;-76
2022/09/07 12:10:25;;;;;;;1.75;0.08;;;24.10;99.90;;;;;;5037027;28;20040;-76
2022/09/07 12:13:12;;;;;;;1.65;0.45;;;23.80;99.90;;;;;;5036908;28;20512;-76
2022/09/07 12:15:40;;;;;;;1.45;0.10;;;24.30;99.90;;;;;;5036715;28;20486;-75
2022/09/07 12:18:15;;;;;;;0.47;0.00;;;24.20;99.90;;;;;;5018983;28;20116;-75
2022/09/07 12:20:46;;;;;;;5.65;0.20;;;23.90;99.90;;;;;;5036705;28;20069;-75
2022/09/07 12:23:14;;;;;;;3.45;0.00;;;23.90;99.90;;;;;;5036972;28;20423;-75
2022/09/07 12:25:40;;;;;;;1.45;0.10;;;24.40;99.90;;;;;;5036458;28;20079;-75
2022/09/07 12:28:35;;;;;;;3.33;0.00;;;24.80;99.90;;;;;;5036790;28;20022;-75
2022/09/07 12:31:05;;;;;;;8.20;1.20;;;25.40;99.90;;;;;;4982739;28;20526;-76
2022/09/07 12:33:36;;;;;;;2.40;0.00;;;25.60;99.90;;;;;;5036826;28;20505;-75
2022/09/07 12:36:25;;;;;;;3.30;0.00;;;25.90;99.60;;;;;;5036250;28;20025;-76
2022/09/07 12:39:18;;;;;;;1.83;0.30;;;26.10;97.20;;;;;;5036030;28;20022;-76
2022/09/07 12:41:50;;;;;;;2.53;0.00;;;26.00;97.70;;;;;;5036597;28;20474;-76
2022/09/07 12:44:18;;;;;;;1.08;0.10;;;25.90;96.80;;;;;;5018490;28;20021;-75
2022/09/07 12:46:53;;;;;;;3.35;0.00;;;25.60;97.10;;;;;;5037444;28;20083;-77
2022/09/07 12:49:21;;;;;;;1.55;0.00;;;25.70;97.40;;;;;;5036387;28;20113;-77
2022/09/07 12:51:52;;;;;;;;;;;26.10;98.10;;;;;;5019253;28;20510;-77
2022/09/07 12:54:28;;;;;;;1.15;0.00;;;26.80;95.90;;;;;;5036513;28;19932;-76
2022/09/07 12:57:35;;;;;;;4.47;0.43;;;26.90;94.60;;;;;;5036999;28;20032;-77
2022/09/07 13:00:16;;;;;;;0.80;0.17;;;27.00;93.60;;;;;;5036247;28;20029;-74
2022/09/07 13:03:04;;;;;;;2.20;0.08;;;27.20;93.60;;;;;;5036219;28;20029;-74
2022/09/07 13:05:50;;;;;;;1.20;0.40;;;27.40;91.90;;;;;;5035848;28;20521;-75
2022/09/07 13:08:34;;;;;;;1.08;0.00;;;27.10;90.90;;;;;;5021667;28;20487;-75
2022/09/07 13:11:18;;;;;;;1.45;0.32;;;26.50;92.00;;;;;;5035734;28;20033;-74
2022/09/07 13:13:58;;;;;;;2.67;0.17;;;26.40;93.50;;;;;;5035581;28;20022;-74